Latest Coastal Weather Observations for Merimbula

IDN60701

Issued at 1:12 am EST Wednesday 27 September 2023 (issued every 10 minutes, with the page automatically refreshed every 10 minutes)

About coastal observations | Map of coastal stations | Coastal observations for NSW | Marine services | Other Formats
Station Details ID: 069147 Name: MERIMBULA AIRPORT AWS Lat: -36.91 Lon: 149.90 Height: 1.5 m
Data from the previous 72 hours. | See also: Recent months at Merimbula
Date/Time
EST
Wind Sea
Height
m
Swell Vis
km
Cloud Weather Temp
°C
Press
MSL
hPa
Rain since
9am
mm
Dir  Spd
kts
Gust
kts
Height
m
Period
s
Dir
27/01:00am CALM 0 0 - - - - 10 Partly cloudy - 13.2 1020.8 0.6
27/12:30am CALM 0 0 - - - - 10 Partly cloudy - 13.2 1020.8 0.6
27/12:04am WSW 2 4 - - - - 9 Partly cloudy - 13.3 1020.9 0.6
27/12:00am WSW 1 4 - - - - 7 Cloudy Showers 13.3 1021.0 0.6
 
Date/Time
EST
Wind Sea
Height
m
Swell Vis
km
Cloud Weather Temp
°C
Press
MSL
hPa
Rain since
9am
mm
Dir  Spd
kts
Gust
kts
Height
m
Period
s
Dir
26/11:55pm CALM 0 0 - - - - 6 Partly cloudy - 13.3 1020.9 0.6
26/11:30pm SW 1 3 - - - - 5 Partly cloudy - 13.3 1020.9 0.2
26/11:25pm SW 1 3 - - - - 5 Cloudy - 13.3 1020.9 0.2
26/11:03pm CALM 0 0 - - - - 8 Partly cloudy - 13.3 1020.8 0.2
26/11:00pm CALM 0 2 - - - - 7 Partly cloudy - 13.3 1020.8 0.2
26/10:30pm SSW 4 6 - - - - 5 Partly cloudy - 13.4 1021.3 0.0
26/10:25pm SSW 4 6 - - - - 5 Partly cloudy - 13.4 1021.3 0.0
26/10:00pm S 4 5 - - - - 7 Partly cloudy - 13.5 1021.4 0.0
26/09:30pm SSE 3 5 - - - - 9 Partly cloudy - 13.8 1021.5 0.0
26/09:00pm ESE 3 5 - - - - 10 Cloudy Showers 14.2 1021.7 0.0
26/08:39pm SE 4 6 - - - - 10 Partly cloudy - 14.3 1021.6 0.0
26/08:30pm SE 4 6 - - - - 9 Cloudy - 14.4 1021.6 0.0
26/08:00pm SE 5 8 - - - - 10 Cloudy - 15.1 1021.4 0.0
26/07:30pm SSE 5 8 - - - - 10 Cloudy - 15.2 1021.2 0.0
26/07:00pm SSE 5 8 - - - - 10 Cloudy - 15.3 1021.0 0.0
26/06:30pm SE 6 11 - - - - 10 Partly cloudy - 15.4 1020.4 0.0
26/06:00pm SE 5 9 - - - - 10 Cloudy - 15.5 1020.4 0.0
26/05:30pm SSE 5 6 - - - - 10 Cloudy - 15.6 1020.8 0.0
26/05:00pm SSE 5 7 - - - - 10 Cloudy - 15.7 1021.0 0.0
26/04:30pm SE 5 8 - - - - 10 Cloudy - 15.8 1020.7 0.0
26/04:00pm SE 6 8 - - - - 10 Cloudy - 16.1 1020.4 0.0
26/03:30pm SE 5 8 - - - - 10 Cloudy - 16.2 1020.6 0.0
26/03:00pm SE 5 8 - - - - 10 Cloudy - 16.6 1020.6 0.0
26/02:30pm SE 5 9 - - - - 10 Cloudy - 16.8 1020.8 0.0
26/02:00pm SSE 6 9 - - - - 10 Cloudy - 16.5 1021.2 0.0
26/01:30pm SSE 6 9 - - - - 10 Cloudy - 16.5 1021.5 0.0
26/01:00pm SSE 7 11 - - - - 10 Partly cloudy - 16.3 1021.8 0.0
26/12:30pm SE 6 9 - - - - 10 Cloudy - 16.4 1022.1 0.0
26/12:00pm SSE 6 9 - - - - 10 Cloudy - 16.0 1022.3 0.0
26/11:30am SE 9 14 - - - - 10 Partly cloudy - 16.3 1022.6 0.0
26/11:00am SE 7 12 - - - - 10 Partly cloudy - 18.1 1022.8 0.0
26/10:30am SE 6 9 - - - - 10 Partly cloudy - 17.4 1023.1 0.0
26/10:00am S 6 11 - - - - 10 Partly cloudy - 17.5 1023.2 0.0
26/09:30am S 6 10 - - - - 10 Partly cloudy - 17.2 1023.3 0.0
26/09:00am S 6 9 - - - - 10 Mostly cloudy - 17.3 1023.4 0.0
26/08:30am S 3 6 - - - - 10 Cloudy - 16.8 1023.4 0.0
26/08:00am WSW 2 4 - - - - 10 Cloudy - 16.3 1023.2 0.0
26/07:30am W 5 7 - - - - 10 Partly cloudy - 15.1 1023.1 0.0
26/07:00am CALM 0 0 - - - - 10 - - 11.6 1022.8 0.0
26/06:30am CALM 0 0 - - - - 10 - - 9.6 1022.6 0.0
26/06:00am CALM 0 0 - - - - 10 - - 8.2 1022.3 0.0
26/05:30am CALM 0 0 - - - - 10 Partly cloudy - 8.9 1021.8 0.0
26/05:00am CALM 0 0 - - - - 10 Partly cloudy - 9.6 1021.5 0.0
26/04:30am SW 3 5 - - - - 10 Partly cloudy - 10.7 1021.3 0.0
26/04:00am SW 4 6 - - - - 10 Partly cloudy - 11.1 1021.0 0.0
26/03:30am S 5 6 - - - - 10 - - 10.7 1020.9 0.0
26/03:00am SSW 4 6 - - - - 10 - - 9.5 1020.6 0.0
26/02:30am SSW 4 5 - - - - 10 - - 10.0 1020.6 0.0
26/02:00am SSE 4 6 - - - - 10 - - 9.9 1020.7 0.0
26/01:30am S 4 5 - - - - 10 - - 9.5 1020.7 0.0
26/01:00am CALM 0 0 - - - - 10 - - 10.2 1020.9 0.0
26/12:30am SW 3 4 - - - - 10 - - 10.0 1021.0 0.0
26/12:00am SSW 1 4 - - - - 10 - - 10.3 1021.1 0.0
 
Date/Time
EST
Wind Sea
Height
m
Swell Vis
km
Cloud Weather Temp
°C
Press
MSL
hPa
Rain since
9am
mm
Dir  Spd
kts
Gust
kts
Height
m
Period
s
Dir
25/11:30pm W 1 4 - - - - 10 - - 10.5 1021.1 0.0
25/11:00pm WSW 2 4 - - - - 10 - - 11.6 1021.1 0.0
25/10:30pm NNW 4 5 - - - - 10 - - 12.5 1021.2 0.0
25/10:00pm CALM 0 0 - - - - 10 - - 12.9 1021.0 0.0
25/09:30pm SSW 4 6 - - - - 10 - - 14.5 1020.8 0.0
25/09:00pm WSW 4 6 - - - - 10 - - 14.3 1020.4 0.0
25/08:30pm NW 6 7 - - - - 10 Partly cloudy - 15.8 1020.2 0.0
25/08:00pm NW 6 9 - - - - 10 Partly cloudy - 16.6 1020.2 0.0
25/07:30pm NNW 8 11 - - - - 10 Partly cloudy - 17.3 1020.2 0.0
25/07:00pm NW 10 13 - - - - 10 Cloudy - 17.8 1020.2 0.0
25/06:30pm NNW 11 16 - - - - 10 Cloudy - 18.5 1019.8 0.0
25/06:00pm NW 5 7 - - - - 10 Cloudy - 18.1 1019.7 0.0
25/05:30pm NW 5 7 - - - - 10 Partly cloudy - 18.6 1019.9 0.0
25/05:00pm CALM 0 0 - - - - 10 Cloudy - 18.7 1019.8 0.0
25/04:30pm SE 4 6 - - - - 10 Cloudy - 18.7 1019.3 0.0
25/04:00pm SSE 5 8 - - - - 10 Cloudy - 18.8 1019.2 0.0
25/03:30pm NE 5 8 - - - - 10 Partly cloudy - 20.6 1018.1 0.0
25/03:00pm ESE 5 8 - - - - 10 Mostly cloudy - 22.5 1017.9 0.0
25/02:30pm NE 7 12 - - - - 10 - - 22.6 1017.8 0.0
25/02:00pm NE 8 12 - - - - 10 - - 23.3 1018.0 0.0
25/01:30pm NE 8 13 - - - - 10 - - 22.6 1018.2 0.0
25/01:00pm NE 8 12 - - - - 10 - - 22.6 1018.6 0.0
25/12:30pm ENE 5 8 - - - - 10 - - 23.2 1019.0 0.0
25/12:00pm ENE 6 9 - - - - 10 - - 22.2 1019.3 0.0
25/11:30am NE 5 8 - - - - 10 - - 21.6 1019.7 0.0
25/11:00am ENE 6 9 - - - - 10 - - 21.7 1019.9 0.0
25/10:30am E 7 10 - - - - 10 - - 20.8 1020.1 0.0
25/10:00am E 6 10 - - - - 10 - - 20.7 1020.3 0.0
25/09:30am ESE 5 7 - - - - 10 - - 20.3 1020.7 0.0
25/09:00am E 4 6 - - - - 10 - - 18.6 1021.0 0.0
25/08:30am ESE 3 5 - - - - 10 - - 17.1 1021.3 0.0
25/08:00am CALM 0 0 - - - - 10 - - 15.8 1021.4 0.0
25/07:30am NNW 2 5 - - - - 10 - - 11.8 1021.5 0.0
25/07:00am SW 3 5 - - - - 10 - - 9.6 1021.7 0.0
25/06:30am SSW 3 5 - - - - 10 - - 7.9 1021.5 0.0
25/06:00am WSW 2 5 - - - - 10 - - 6.6 1021.4 0.0
25/05:30am CALM 0 0 - - - - 10 - - 7.1 1021.2 0.0
25/05:00am WNW 3 5 - - - - 10 - - 7.3 1021.2 0.0
25/04:30am SW 3 4 - - - - 10 - - 6.9 1021.2 0.0
25/04:00am SW 4 6 - - - - 10 - - 7.4 1021.1 0.0
25/03:30am WSW 3 4 - - - - 10 - - 7.6 1021.1 0.0
25/03:00am CALM 0 0 - - - - 10 - - 7.7 1021.2 0.0
25/02:30am SW 4 5 - - - - 10 - - 8.0 1021.5 0.0
25/02:00am SW 4 4 - - - - 10 - - 7.9 1021.8 0.0
25/01:30am CALM 0 0 - - - - 10 - - 8.1 1022.1 0.0
25/01:00am SW 3 4 - - - - 10 - - 8.6 1022.4 0.0
25/12:30am WSW 4 5 - - - - 10 - - 9.3 1022.7 0.0
25/12:00am NW 4 6 - - - - 10 - - 10.3 1022.8 0.0
 
Date/Time
EST
Wind Sea
Height
m
Swell Vis
km
Cloud Weather Temp
°C
Press
MSL
hPa
Rain since
9am
mm
Dir  Spd
kts
Gust
kts
Height
m
Period
s
Dir
24/11:30pm W 3 4 - - - - 10 - - 10.3 1023.0 0.0
24/11:00pm CALM 0 0 - - - - 10 - - 10.8 1023.2 0.0
24/10:30pm CALM 0 2 - - - - 10 - - 12.0 1023.6 0.0
24/10:00pm NNW 3 5 - - - - 10 - - 14.1 1023.6 0.0
24/09:30pm N 5 8 - - - - 10 - - 15.0 1023.7 0.0
24/09:00pm N 6 12 - - - - 10 - - 15.5 1023.9 0.0
24/08:30pm N 6 11 - - - - 10 - - 15.7 1023.9 0.0
24/08:00pm N 6 11 - - - - 10 - - 15.8 1024.1 0.0
24/07:30pm NNE 7 11 - - - - 10 - - 16.0 1024.0 0.0
24/07:00pm NNE 7 12 - - - - 10 - - 16.1 1023.7 0.0
24/06:30pm NNE 8 14 - - - - 10 - - 16.3 1023.5 0.0
24/06:00pm NNE 8 14 - - - - 10 - - 16.6 1023.3 0.0
24/05:30pm NNE 8 14 - - - - 10 - - 17.0 1023.2 0.0
24/05:00pm NNE 10 16 - - - - 10 - - 17.4 1023.2 0.0
24/04:30pm NNE 11 19 - - - - 10 - - 17.8 1023.2 0.0
24/04:00pm NE 9 17 - - - - 10 - - 18.6 1023.4 0.0
24/03:30pm NE 11 18 - - - - 10 - - 18.6 1023.4 0.0
24/03:00pm NE 12 22 - - - - 10 - - 18.6 1023.5 0.0
24/02:30pm NNE 11 19 - - - - 10 - - 19.0 1023.8 0.0
24/02:00pm NE 12 20 - - - - 10 - - 19.2 1024.2 0.0
24/01:30pm NE 11 21 - - - - 10 - - 19.4 1024.5 0.0
24/01:00pm NNE 10 19 - - - - 10 - - 19.6 1024.8 0.0
24/12:30pm NE 11 20 - - - - 10 - - 19.8 1025.2 0.0
24/12:00pm NE 11 17 - - - - 10 - - 20.0 1025.5 0.0
24/11:30am NE 9 18 - - - - 10 - - 19.7 1025.9 0.0
24/11:00am NE 11 18 - - - - 10 - - 19.4 1026.4 0.0
24/10:30am NE 10 16 - - - - 10 - - 19.3 1026.8 0.0
24/10:00am NE 7 12 - - - - 10 - - 19.4 1027.4 0.0
24/09:30am NE 7 12 - - - - 10 - - 18.6 1027.9 0.0
24/09:00am ESE 4 6 - - - - 10 - - 18.0 1028.2 0.0
24/08:30am E 4 7 - - - - 10 - - 17.1 1028.4 0.0
24/08:00am CALM 0 4 - - - - 10 - - 15.5 1028.2 0.0
24/07:30am CALM 0 0 - - - - 10 - - 12.3 1028.2 0.0
24/07:00am SSW 2 4 - - - - 10 - - 9.6 1028.1 0.0
24/06:30am SSW 4 5 - - - - 10 - - 8.1 1028.0 0.0
24/06:00am SSW 4 5 - - - - 10 - - 7.3 1027.8 0.0
24/05:30am SSW 5 5 - - - - 10 - - 7.8 1027.6 0.0
24/05:00am SSW 5 6 - - - - 10 - - 8.2 1027.5 0.0
24/04:30am SSW 4 5 - - - - 10 - - 8.3 1027.5 0.0
24/04:00am CALM 0 0 - - - - 10 - - 8.3 1027.5 0.0
24/03:30am CALM 0 0 - - - - 10 Partly cloudy - 9.6 1027.4 0.0
24/03:00am CALM 0 0 - - - - 10 Mostly cloudy - 10.5 1027.5 0.0
24/02:30am CALM 0 0 - - - - 10 Cloudy - 10.6 1027.6 0.0
24/02:00am CALM 0 0 - - - - 10 Partly cloudy - 10.4 1028.0 0.0
24/01:30am CALM 0 0 - - - - 10 Partly cloudy - 11.0 1028.3 0.0

Other formats

Comma delimited format used in spreadsheet applications
http://www.bom.gov.au/fwo/IDN60701/IDN60701.95929.axf

JavaScript Object Notation format (JSON) in row-major order
http://www.bom.gov.au/fwo/IDN60701/IDN60701.95929.json

Data quality

Most of these data are generated automatically and are frequently updated. Quality checks on data are not normally performed. It is possible for incorrect values to appear. Refer to information at About Latest Weather Observations and please check the disclaimer before using these data.